Flinterbirka — PHFQ — position and weather

sailwx.info

Track history (hours):
 
Tides and Currents Weather Stations Pressure Air Temp Water Temp Dewpoint Dewpoint Depression Visibility Wind Speed Wind Dir Waves Ship Positions

Flinterbirka

Last reported at 2014-Jul-23 16:25 UTC. Time now 2014-Jul-25 09:09 UTC.
Position N 47°03' W 007°16'.

Length 83 m; draft 5.6 m.

Type: Cargo ship. MMSI: 246525000.

Date/timePositionNaut miles runAvg speedWind from/ knotsBaromVisibWave heightAir tempDewpointWater temp
2014-Jul-23 16:25N 47°03' W 007°16'23110.5
2014-Jul-22 18:24N 50°19' W 004°10'3 0.1
2014-Jul-21 16:20N 50°22' W 004°08'0 0.0
2014-Jul-20 08:34N 50°22' W 004°08'0 0.0
2014-Jul-20 07:32N 50°22' W 004°08'0 0.0
2014-Jul-20 06:32N 50°22' W 004°08'0 0.0
2014-Jul-20 05:31N 50°22' W 004°08'0 0.0
2014-Jul-20 04:31N 50°22' W 004°08'0 0.0
2014-Jul-20 03:33N 50°22' W 004°08'0 0.0
2014-Jul-20 02:33N 50°22' W 004°08'0 0.0
2014-Jul-20 01:32N 50°22' W 004°08'0 0.0
2014-Jul-20 00:32N 50°22' W 004°08'0 0.0
2014-Jul-19 23:32N 50°22' W 004°08'0 0.0
2014-Jul-19 22:31N 50°22' W 004°08'0 0.0
2014-Jul-19 21:31N 50°22' W 004°08'0 0.0
2014-Jul-19 20:33N 50°22' W 004°08'0 0.0
2014-Jul-19 19:30N 50°22' W 004°08'0 0.0
2014-Jul-19 18:33N 50°22' W 004°08'0 0.2
2014-Jul-19 17:33N 50°22' W 004°08'13410.3
2014-Jul-19 04:34N 50°29' W 000°38'20 9.6
2014-Jul-19 02:27N 50°32' W 000°06'9 8.5
2014-Jul-19 01:27N 50°34' E 000°07'11 8.7
2014-Jul-19 00:10N 50°37' E 000°24'610.0
2014-Jul-18 23:33N 50°38' E 000°33'1111.1
2014-Jul-18 22:34N 50°44' E 000°48'2611.0
2014-Jul-18 20:11N 51°00' E 001°20'6 9.3
2014-Jul-18 19:34N 51°04' E 001°27'9 8.7
2014-Jul-18 18:34N 51°10' E 001°38'8 8.0
2014-Jul-18 17:33N 51°16' E 001°46'9 8.6
2014-Jul-18 16:33N 51°22' E 001°55'9 8.4
2014-Jul-18 15:28N 51°22' E 002°10'10 9.8
2014-Jul-18 14:28N 51°22' E 002°25'1011.3
2014-Jul-18 13:33N 51°22' E 002°42'1211.6
2014-Jul-18 12:33N 51°22' E 003°00'1212.0
2014-Jul-18 11:32N 51°24' E 003°20'1212.6
2014-Jul-18 10:33N 51°25' E 003°39'1110.9
2014-Jul-18 09:33N 51°24' E 003°57'5 4.6
2014-Jul-18 08:34N 51°28' E 004°00'0 0.2
2014-Jul-18 07:31N 51°27' E 004°00'0 0.0
2014-Jul-18 06:33N 51°27' E 004°00'0 0.1
2014-Jul-18 05:33N 51°28' E 004°00'0 0.0
2014-Jul-18 04:34N 51°28' E 004°00'0 0.0
2014-Jul-18 03:34N 51°28' E 004°00'0 0.0
2014-Jul-18 02:33N 51°28' E 004°00'0 0.0
2014-Jul-18 01:34N 51°28' E 004°00'0 0.0
2014-Jul-18 00:34N 51°28' E 004°00'0 0.0
2014-Jul-17 23:33N 51°28' E 004°00'0 0.0
2014-Jul-17 22:33N 51°28' E 004°00'0 0.0
2014-Jul-17 21:33N 51°28' E 004°00'0 0.0
2014-Jul-17 20:33N 51°28' E 004°00'0 0.0
2014-Jul-17 19:33N 51°28' E 004°00'0 0.0
2014-Jul-17 18:33N 51°28' E 004°00'0 0.0
2014-Jul-17 17:33N 51°28' E 004°00'0 0.0
2014-Jul-17 16:34N 51°28' E 004°00'0 0.0
2014-Jul-17 15:34N 51°28' E 004°00'0 0.0
2014-Jul-17 14:34N 51°28' E 004°00'0 0.1
2014-Jul-17 13:33N 51°27' E 004°00'0 0.0
2014-Jul-17 12:34N 51°27' E 004°00'0 0.0
2014-Jul-17 11:34N 51°27' E 004°00'0 0.0
2014-Jul-17 10:33N 51°27' E 004°00'0 0.0
2014-Jul-17 09:33N 51°27' E 004°00'0 0.0
2014-Jul-17 08:33N 51°27' E 004°00'0 0.0
2014-Jul-17 07:34N 51°27' E 004°00'0 0.0
2014-Jul-17 06:34N 51°27' E 004°00'0 0.0
2014-Jul-17 05:34N 51°27' E 004°00'0 0.0
2014-Jul-17 04:34N 51°27' E 004°00'0 0.0
2014-Jul-17 03:34N 51°27' E 004°00'0 0.0
2014-Jul-17 02:34N 51°27' E 004°00'0 0.0
2014-Jul-17 01:33N 51°27' E 004°00'0 0.0
2014-Jul-17 00:34N 51°27' E 004°00'0 0.0
2014-Jul-16 23:34N 51°27' E 004°00'0 0.0
2014-Jul-16 22:33N 51°27' E 004°00'0 0.0
2014-Jul-16 21:34N 51°27' E 004°00'0 0.0
2014-Jul-16 20:33N 51°27' E 004°00'0 0.0
2014-Jul-16 19:33N 51°27' E 004°00'0 0.0
2014-Jul-16 18:33N 51°27' E 004°00'0 0.0
2014-Jul-16 17:33N 51°27' E 004°00'0 0.0
2014-Jul-16 16:33N 51°27' E 004°00'0 0.0
2014-Jul-16 15:33N 51°27' E 004°00'0 0.0
2014-Jul-16 14:34N 51°27' E 004°00'0 0.1
2014-Jul-16 13:33N 51°28' E 004°00'0 0.0
2014-Jul-16 12:34N 51°28' E 004°00'0 0.0
2014-Jul-16 11:34N 51°28' E 004°00'0 0.0
2014-Jul-16 10:33N 51°28' E 004°00'0 0.0
2014-Jul-16 09:33N 51°28' E 004°00'0 0.0
2014-Jul-16 08:33N 51°28' E 004°00'0 0.0
2014-Jul-16 07:33N 51°28' E 004°00'0 0.0
2014-Jul-16 06:33N 51°28' E 004°00'0 0.0
2014-Jul-16 05:33N 51°28' E 004°00'0 0.0
2014-Jul-16 04:33N 51°28' E 004°00'0 0.0
2014-Jul-16 03:33N 51°28' E 004°00'0 0.0
2014-Jul-16 02:33N 51°28' E 004°00'0 0.0
2014-Jul-16 01:33N 51°28' E 004°00'0 0.0
2014-Jul-16 00:33N 51°28' E 004°00'0 0.0
2014-Jul-15 23:33N 51°28' E 004°00'0 0.0
2014-Jul-15 22:33N 51°28' E 004°00'0 0.0
2014-Jul-15 21:33N 51°28' E 004°00'0 0.0
2014-Jul-15 20:33N 51°28' E 004°00'0 0.0
2014-Jul-15 19:33N 51°28' E 004°00'0 0.0
2014-Jul-15 18:34N 51°28' E 004°00'0 0.0
2014-Jul-15 17:33N 51°28' E 004°00'0 0.0
2014-Jul-15 16:33N 51°28' E 004°00'0 0.0
2014-Jul-15 15:33N 51°28' E 004°00'0 0.0
2014-Jul-15 14:33N 51°28' E 004°00'0 0.0
2014-Jul-15 13:33N 51°28' E 004°00'0 0.0
2014-Jul-15 12:33N 51°28' E 004°00'0 0.0
2014-Jul-15 11:33N 51°28' E 004°00'0 0.0
2014-Jul-15 10:33N 51°28' E 004°00'0 0.0
2014-Jul-15 09:33N 51°28' E 004°00'0 0.0
2014-Jul-15 08:33N 51°28' E 004°00'0 0.0
2014-Jul-15 07:33N 51°28' E 004°00'0 0.0
2014-Jul-15 06:33N 51°28' E 004°00'0 0.0
2014-Jul-15 05:33N 51°28' E 004°00'0 0.0
2014-Jul-15 04:33N 51°28' E 004°00'0 0.0
2014-Jul-15 03:33N 51°28' E 004°00'0 0.0
2014-Jul-15 02:33N 51°28' E 004°00'0 0.0
2014-Jul-15 01:33N 51°28' E 004°00'0 0.0
2014-Jul-15 00:33N 51°28' E 004°00'0 0.0
2014-Jul-14 23:33N 51°28' E 004°00'0 0.0
2014-Jul-14 22:33N 51°28' E 004°00'0 0.0
2014-Jul-14 21:33N 51°28' E 004°00'0 0.0
2014-Jul-14 20:33N 51°28' E 004°00'0 0.0
2014-Jul-14 19:33N 51°28' E 004°00'0 0.0
2014-Jul-14 18:33N 51°28' E 004°00'0 0.0
2014-Jul-14 17:33N 51°28' E 004°00'0 0.0
2014-Jul-14 16:33N 51°28' E 004°00'0 0.0
2014-Jul-14 15:33N 51°28' E 004°00'0 0.0
2014-Jul-14 14:33N 51°28' E 004°00'0 0.0
2014-Jul-14 13:33N 51°28' E 004°00'0 0.0
2014-Jul-14 12:33N 51°28' E 004°00'0 0.1
2014-Jul-14 11:33N 51°27' E 004°00'0 0.0
2014-Jul-14 10:33N 51°27' E 004°00'0 0.1
2014-Jul-14 09:33N 51°28' E 004°00'0 0.0
2014-Jul-14 08:33N 51°28' E 004°00'0 0.0
2014-Jul-14 07:33N 51°28' E 004°00'0 0.0
2014-Jul-14 06:33N 51°28' E 004°00'0 0.0
2014-Jul-14 05:33N 51°28' E 004°00'0 0.0
2014-Jul-14 04:33N 51°28' E 004°00'0 0.0
2014-Jul-14 03:33N 51°28' E 004°00'0 0.0
2014-Jul-14 02:33N 51°28' E 004°00'0 0.0
2014-Jul-14 01:33N 51°28' E 004°00'0 0.0
2014-Jul-14 00:33N 51°28' E 004°00'0 0.0
2014-Jul-13 23:33N 51°28' E 004°00'0 0.0
2014-Jul-13 22:33N 51°28' E 004°00'0 0.0
2014-Jul-13 21:33N 51°28' E 004°00'0 0.0
2014-Jul-13 20:33N 51°28' E 004°00'0 0.0
2014-Jul-13 19:33N 51°28' E 004°00'0 0.0
2014-Jul-13 18:33N 51°28' E 004°00'0 0.0
2014-Jul-13 17:33N 51°28' E 004°00'0 0.0
2014-Jul-13 16:33N 51°28' E 004°00'  
Track history (hours):
 
Tides and Currents Weather Stations Pressure Air Temp Water Temp Dewpoint Dewpoint Depression Visibility Wind Speed Wind Dir Waves Ship Positions

Flinterbirka

Last reported at 2014-Jul-23 16:25 UTC. Time now 2014-Jul-25 09:09 UTC.
Position N 47°03' W 007°16'.

Length 83 m; draft 5.6 m.

Type: Cargo ship. MMSI: 246525000.

Date/timePositionNaut miles runAvg speedWind from/ knotsBaromVisibWave heightAir tempDewpointWater temp
2014-Jul-23 16:25N 47°03' W 007°16'23110.5
2014-Jul-22 18:24N 50°19' W 004°10'3 0.1
2014-Jul-21 16:20N 50°22' W 004°08'0 0.0
2014-Jul-20 08:34N 50°22' W 004°08'0 0.0
2014-Jul-20 07:32N 50°22' W 004°08'0 0.0
2014-Jul-20 06:32N 50°22' W 004°08'0 0.0
2014-Jul-20 05:31N 50°22' W 004°08'0 0.0
2014-Jul-20 04:31N 50°22' W 004°08'0 0.0
2014-Jul-20 03:33N 50°22' W 004°08'0 0.0
2014-Jul-20 02:33N 50°22' W 004°08'0 0.0
2014-Jul-20 01:32N 50°22' W 004°08'0 0.0
2014-Jul-20 00:32N 50°22' W 004°08'0 0.0
2014-Jul-19 23:32N 50°22' W 004°08'0 0.0
2014-Jul-19 22:31N 50°22' W 004°08'0 0.0
2014-Jul-19 21:31N 50°22' W 004°08'0 0.0
2014-Jul-19 20:33N 50°22' W 004°08'0 0.0
2014-Jul-19 19:30N 50°22' W 004°08'0 0.0
2014-Jul-19 18:33N 50°22' W 004°08'0 0.2
2014-Jul-19 17:33N 50°22' W 004°08'13410.3
2014-Jul-19 04:34N 50°29' W 000°38'20 9.6
2014-Jul-19 02:27N 50°32' W 000°06'9 8.5
2014-Jul-19 01:27N 50°34' E 000°07'11 8.7
2014-Jul-19 00:10N 50°37' E 000°24'610.0
2014-Jul-18 23:33N 50°38' E 000°33'1111.1
2014-Jul-18 22:34N 50°44' E 000°48'2611.0
2014-Jul-18 20:11N 51°00' E 001°20'6 9.3
2014-Jul-18 19:34N 51°04' E 001°27'9 8.7
2014-Jul-18 18:34N 51°10' E 001°38'8 8.0
2014-Jul-18 17:33N 51°16' E 001°46'9 8.6
2014-Jul-18 16:33N 51°22' E 001°55'9 8.4
2014-Jul-18 15:28N 51°22' E 002°10'10 9.8
2014-Jul-18 14:28N 51°22' E 002°25'1011.3
2014-Jul-18 13:33N 51°22' E 002°42'1211.6
2014-Jul-18 12:33N 51°22' E 003°00'1212.0
2014-Jul-18 11:32N 51°24' E 003°20'1212.6
2014-Jul-18 10:33N 51°25' E 003°39'1110.9
2014-Jul-18 09:33N 51°24' E 003°57'5 4.6
2014-Jul-18 08:34N 51°28' E 004°00'0 0.2
2014-Jul-18 07:31N 51°27' E 004°00'0 0.0
2014-Jul-18 06:33N 51°27' E 004°00'0 0.1
2014-Jul-18 05:33N 51°28' E 004°00'0 0.0
2014-Jul-18 04:34N 51°28' E 004°00'0 0.0
2014-Jul-18 03:34N 51°28' E 004°00'0 0.0
2014-Jul-18 02:33N 51°28' E 004°00'0 0.0
2014-Jul-18 01:34N 51°28' E 004°00'0 0.0
2014-Jul-18 00:34N 51°28' E 004°00'0 0.0
2014-Jul-17 23:33N 51°28' E 004°00'0 0.0
2014-Jul-17 22:33N 51°28' E 004°00'0 0.0
2014-Jul-17 21:33N 51°28' E 004°00'0 0.0
2014-Jul-17 20:33N 51°28' E 004°00'0 0.0
2014-Jul-17 19:33N 51°28' E 004°00'0 0.0
2014-Jul-17 18:33N 51°28' E 004°00'0 0.0
2014-Jul-17 17:33N 51°28' E 004°00'0 0.0
2014-Jul-17 16:34N 51°28' E 004°00'0 0.0
2014-Jul-17 15:34N 51°28' E 004°00'0 0.0
2014-Jul-17 14:34N 51°28' E 004°00'0 0.1
2014-Jul-17 13:33N 51°27' E 004°00'0 0.0
2014-Jul-17 12:34N 51°27' E 004°00'0 0.0
2014-Jul-17 11:34N 51°27' E 004°00'0 0.0
2014-Jul-17 10:33N 51°27' E 004°00'0 0.0
2014-Jul-17 09:33N 51°27' E 004°00'0 0.0
2014-Jul-17 08:33N 51°27' E 004°00'0 0.0
2014-Jul-17 07:34N 51°27' E 004°00'0 0.0
2014-Jul-17 06:34N 51°27' E 004°00'0 0.0
2014-Jul-17 05:34N 51°27' E 004°00'0 0.0
2014-Jul-17 04:34N 51°27' E 004°00'0 0.0
2014-Jul-17 03:34N 51°27' E 004°00'0 0.0
2014-Jul-17 02:34N 51°27' E 004°00'0 0.0
2014-Jul-17 01:33N 51°27' E 004°00'0 0.0
2014-Jul-17 00:34N 51°27' E 004°00'0 0.0
2014-Jul-16 23:34N 51°27' E 004°00'0 0.0
2014-Jul-16 22:33N 51°27' E 004°00'0 0.0
2014-Jul-16 21:34N 51°27' E 004°00'0 0.0
2014-Jul-16 20:33N 51°27' E 004°00'0 0.0
2014-Jul-16 19:33N 51°27' E 004°00'0 0.0
2014-Jul-16 18:33N 51°27' E 004°00'0 0.0
2014-Jul-16 17:33N 51°27' E 004°00'0 0.0
2014-Jul-16 16:33N 51°27' E 004°00'0 0.0
2014-Jul-16 15:33N 51°27' E 004°00'0 0.0
2014-Jul-16 14:34N 51°27' E 004°00'0 0.1
2014-Jul-16 13:33N 51°28' E 004°00'0 0.0
2014-Jul-16 12:34N 51°28' E 004°00'0 0.0
2014-Jul-16 11:34N 51°28' E 004°00'0 0.0
2014-Jul-16 10:33N 51°28' E 004°00'0 0.0
2014-Jul-16 09:33N 51°28' E 004°00'0 0.0
2014-Jul-16 08:33N 51°28' E 004°00'0 0.0
2014-Jul-16 07:33N 51°28' E 004°00'0 0.0
2014-Jul-16 06:33N 51°28' E 004°00'0 0.0
2014-Jul-16 05:33N 51°28' E 004°00'0 0.0
2014-Jul-16 04:33N 51°28' E 004°00'0 0.0
2014-Jul-16 03:33N 51°28' E 004°00'0 0.0
2014-Jul-16 02:33N 51°28' E 004°00'0 0.0
2014-Jul-16 01:33N 51°28' E 004°00'0 0.0
2014-Jul-16 00:33N 51°28' E 004°00'0 0.0
2014-Jul-15 23:33N 51°28' E 004°00'0 0.0
2014-Jul-15 22:33N 51°28' E 004°00'0 0.0
2014-Jul-15 21:33N 51°28' E 004°00'0 0.0
2014-Jul-15 20:33N 51°28' E 004°00'0 0.0
2014-Jul-15 19:33N 51°28' E 004°00'0 0.0
2014-Jul-15 18:34N 51°28' E 004°00'0 0.0
2014-Jul-15 17:33N 51°28' E 004°00'0 0.0
2014-Jul-15 16:33N 51°28' E 004°00'0 0.0
2014-Jul-15 15:33N 51°28' E 004°00'0 0.0
2014-Jul-15 14:33N 51°28' E 004°00'0 0.0
2014-Jul-15 13:33N 51°28' E 004°00'0 0.0
2014-Jul-15 12:33N 51°28' E 004°00'0 0.0
2014-Jul-15 11:33N 51°28' E 004°00'0 0.0
2014-Jul-15 10:33N 51°28' E 004°00'0 0.0
2014-Jul-15 09:33N 51°28' E 004°00'0 0.0
2014-Jul-15 08:33N 51°28' E 004°00'0 0.0
2014-Jul-15 07:33N 51°28' E 004°00'0 0.0
2014-Jul-15 06:33N 51°28' E 004°00'0 0.0
2014-Jul-15 05:33N 51°28' E 004°00'0 0.0
2014-Jul-15 04:33N 51°28' E 004°00'0 0.0
2014-Jul-15 03:33N 51°28' E 004°00'0 0.0
2014-Jul-15 02:33N 51°28' E 004°00'0 0.0
2014-Jul-15 01:33N 51°28' E 004°00'0 0.0
2014-Jul-15 00:33N 51°28' E 004°00'0 0.0
2014-Jul-14 23:33N 51°28' E 004°00'0 0.0
2014-Jul-14 22:33N 51°28' E 004°00'0 0.0
2014-Jul-14 21:33N 51°28' E 004°00'0 0.0
2014-Jul-14 20:33N 51°28' E 004°00'0 0.0
2014-Jul-14 19:33N 51°28' E 004°00'0 0.0
2014-Jul-14 18:33N 51°28' E 004°00'0 0.0
2014-Jul-14 17:33N 51°28' E 004°00'0 0.0
2014-Jul-14 16:33N 51°28' E 004°00'0 0.0
2014-Jul-14 15:33N 51°28' E 004°00'0 0.0
2014-Jul-14 14:33N 51°28' E 004°00'0 0.0
2014-Jul-14 13:33N 51°28' E 004°00'0 0.0
2014-Jul-14 12:33N 51°28' E 004°00'0 0.1
2014-Jul-14 11:33N 51°27' E 004°00'0 0.0
2014-Jul-14 10:33N 51°27' E 004°00'0 0.1
2014-Jul-14 09:33N 51°28' E 004°00'0 0.0
2014-Jul-14 08:33N 51°28' E 004°00'0 0.0
2014-Jul-14 07:33N 51°28' E 004°00'0 0.0
2014-Jul-14 06:33N 51°28' E 004°00'0 0.0
2014-Jul-14 05:33N 51°28' E 004°00'0 0.0
2014-Jul-14 04:33N 51°28' E 004°00'0 0.0
2014-Jul-14 03:33N 51°28' E 004°00'0 0.0
2014-Jul-14 02:33N 51°28' E 004°00'0 0.0
2014-Jul-14 01:33N 51°28' E 004°00'0 0.0
2014-Jul-14 00:33N 51°28' E 004°00'0 0.0
2014-Jul-13 23:33N 51°28' E 004°00'0 0.0
2014-Jul-13 22:33N 51°28' E 004°00'0 0.0
2014-Jul-13 21:33N 51°28' E 004°00'0 0.0
2014-Jul-13 20:33N 51°28' E 004°00'0 0.0
2014-Jul-13 19:33N 51°28' E 004°00'0 0.0
2014-Jul-13 18:33N 51°28' E 004°00'0 0.0
2014-Jul-13 17:33N 51°28' E 004°00'0 0.0
2014-Jul-13 16:33N 51°28' E 004°00'  

Dump ship's entire track history